Time;durP1;ratioP1;P1;durP2;ratioP2;P2;SDS_P1;SDS_P2;PMS_P1;PMS_P2;Temp;Humidity;BMP_temperature;BMP_pressure;BME280_temperature;BME280_humidity;BME280_pressure;Samples;Min_cycle;Max_cycle;Signal;HPM_P1;HPM_P2
2023/09/11 13:51:02;;;;;;;8.48;6.68;;;36.60;52.40;;;;;;7603952;19;20366;-72
2023/09/11 13:53:34;;;;;;;8.75;7.07;;;36.20;51.50;;;;;;7605560;19;20021;-74
2023/09/11 13:56:09;;;;;;;10.27;6.82;;;36.90;53.40;;;;;;7609199;19;20014;-74
2023/09/11 13:58:42;;;;;;;9.40;7.05;;;37.00;53.60;;;;;;7620778;19;22650;-74
2023/09/11 14:01:17;;;;;;;9.98;7.38;;;37.40;52.40;;;;;;7598525;19;20014;-75
2023/09/11 14:03:49;;;;;;;9.52;8.52;;;37.70;53.30;;;;;;7570913;19;20403;-73
2023/09/11 14:06:24;;;;;;;12.65;9.07;;;37.50;54.70;;;;;;7603639;19;20010;-72
2023/09/11 14:08:57;;;;;;;10.02;9.10;;;37.40;57.40;;;;;;7580789;19;20011;-73
2023/09/11 14:11:29;;;;;;;10.10;8.85;;;37.30;56.10;;;;;;7598159;19;20110;-73
2023/09/11 14:14:02;;;;;;;9.40;8.48;;;37.40;55.30;;;;;;7574900;19;20018;-71
2023/09/11 14:16:34;;;;;;;9.15;8.23;;;37.10;57.00;;;;;;7572180;19;20089;-71
2023/09/11 14:19:07;;;;;;;13.00;9.10;;;37.40;57.00;;;;;;7548227;19;20014;-72
2023/09/11 14:21:40;;;;;;;15.40;9.02;;;37.30;58.20;;;;;;7590970;19;20493;-73
2023/09/11 14:24:15;;;;;;;11.30;9.50;;;37.40;55.90;;;;;;7582919;19;22390;-71
2023/09/11 14:26:48;;;;;;;8.90;8.00;;;37.40;55.60;;;;;;7588742;19;20026;-72
2023/09/11 14:29:20;;;;;;;12.80;9.10;;;37.40;56.40;;;;;;7614867;19;21456;-72
2023/09/11 14:31:53;;;;;;;14.88;10.00;;;37.10;56.80;;;;;;7619765;19;20010;-72
2023/09/11 14:34:26;;;;;;;10.52;9.48;;;36.50;58.00;;;;;;7615064;19;20423;-72
2023/09/11 14:36:58;;;;;;;11.55;9.27;;;35.90;57.20;;;;;;7623760;19;20018;-73
2023/09/11 14:39:50;;;;;;;12.70;9.73;;;35.40;59.10;;;;;;7592806;19;20018;-71
2023/09/11 14:42:22;;;;;;;10.75;9.65;;;35.40;60.00;;;;;;7592746;19;20105;-71
2023/09/11 14:44:55;;;;;;;15.30;9.38;;;35.50;60.20;;;;;;7616245;19;20010;-71
2023/09/11 14:47:27;;;;;;;11.90;10.10;;;35.50;59.90;;;;;;7619553;19;20018;-71
2023/09/11 14:50:01;;;;;;;17.00;10.57;;;34.90;61.10;;;;;;7605746;19;20018;-71
2023/09/11 14:52:34;;;;;;;11.18;9.98;;;34.60;61.70;;;;;;7611877;19;20083;-72
2023/09/11 14:55:06;;;;;;;15.20;9.85;;;34.20;62.10;;;;;;7608743;19;20018;-72
2023/09/11 14:57:39;;;;;;;13.43;10.13;;;33.60;61.60;;;;;;7600956;19;20022;-71
2023/09/11 15:00:14;;;;;;;10.50;9.50;;;33.20;63.90;;;;;;7575792;19;20017;-72
2023/09/11 15:02:46;;;;;;;14.80;10.48;;;32.80;65.60;;;;;;7536078;19;20018;-72
2023/09/11 15:05:19;;;;;;;15.38;10.45;;;32.30;65.40;;;;;;7559687;19;20015;-72
2023/09/11 15:07:51;;;;;;;15.30;10.32;;;32.10;65.40;;;;;;7570961;19;20106;-71
2023/09/11 15:10:23;;;;;;;12.47;10.27;;;31.90;66.00;;;;;;7554748;19;20023;-72
2023/09/11 15:12:56;;;;;;;16.00;10.45;;;31.80;68.30;;;;;;7571976;19;21193;-71
2023/09/11 15:15:29;;;;;;;17.83;11.20;;;31.60;68.60;;;;;;7590250;19;20060;-71
2023/09/11 15:18:02;;;;;;;11.50;10.30;;;31.50;68.40;;;;;;7569222;19;20026;-71
2023/09/11 15:20:34;;;;;;;12.95;10.15;;;31.40;68.30;;;;;;7067758;19;9999733;-72
2023/09/11 15:23:06;;;;;;;13.50;9.77;;;31.30;69.20;;;;;;7570893;19;20022;-72
2023/09/11 15:25:39;;;;;;;13.63;10.25;;;31.20;69.20;;;;;;7587760;19;20283;-72
2023/09/11 15:28:11;;;;;;;13.77;12.02;;;31.00;68.10;;;;;;7572576;19;20022;-72
2023/09/11 15:30:43;;;;;;;43.80;34.30;;;31.00;69.40;;;;;;7564249;19;20556;-72
2023/09/11 15:33:16;;;;;;;17.38;11.35;;;31.00;69.00;;;;;;7541071;19;20579;-72
2023/09/11 15:36:05;;;;;;;18.75;10.95;;;30.90;70.30;;;;;;7551984;19;20022;-72
2023/09/11 15:38:40;;;;;;;13.10;10.18;;;30.90;70.10;;;;;;7565206;19;20010;-73
2023/09/11 15:41:13;;;;;;;13.82;10.68;;;30.80;71.30;;;;;;7580217;19;20488;-72
2023/09/11 15:43:46;;;;;;;15.50;11.20;;;30.70;71.50;;;;;;7566746;19;21826;-72
2023/09/11 15:46:18;;;;;;;11.82;10.52;;;30.50;72.00;;;;;;7584743;19;20267;-72
2023/09/11 15:49:11;;;;;;;14.35;10.48;;;30.40;72.20;;;;;;7600385;19;20017;-71
2023/09/11 15:51:44;;;;;;;13.30;10.77;;;30.30;72.80;;;;;;7593493;19;20026;-72
2023/09/11 15:54:16;;;;;;;16.25;9.48;;;30.50;71.70;;;;;;7570298;19;20022;-73
2023/09/11 15:56:48;;;;;;;12.13;10.13;;;30.70;70.60;;;;;;7600336;19;20084;-72
2023/09/11 15:59:20;;;;;;;15.40;10.95;;;30.80;70.60;;;;;;7608587;19;20017;-72
2023/09/11 16:01:53;;;;;;;10.57;9.32;;;30.80;69.80;;;;;;7591599;19;20011;-72
2023/09/11 16:04:26;;;;;;;12.23;10.33;;;30.90;70.60;;;;;;7588797;19;20019;-73
2023/09/11 16:06:59;;;;;;;12.88;10.68;;;30.80;72.10;;;;;;7589544;19;20014;-73
2023/09/11 16:09:32;;;;;;;14.73;10.45;;;30.70;72.60;;;;;;7585244;19;20010;-73
2023/09/11 16:12:04;;;;;;;10.90;9.77;;;30.50;73.30;;;;;;7580970;19;20010;-73
2023/09/11 16:14:36;;;;;;;10.93;9.88;;;30.50;74.00;;;;;;7567799;19;20038;-72
2023/09/11 16:17:09;;;;;;;14.67;9.80;;;30.60;73.80;;;;;;7589456;19;20018;-74
2023/09/11 16:19:41;;;;;;;10.80;9.75;;;30.50;73.90;;;;;;7599204;19;20019;-72
2023/09/11 16:22:14;;;;;;;10.83;9.70;;;30.20;74.10;;;;;;7592210;19;20022;-72
2023/09/11 16:24:46;;;;;;;11.63;10.02;;;30.00;75.20;;;;;;7598781;19;20040;-72
2023/09/11 16:27:18;;;;;;;14.80;10.40;;;29.90;76.10;;;;;;7600537;19;20017;-72
2023/09/11 16:29:51;;;;;;;13.82;10.15;;;29.60;76.30;;;;;;7601084;19;20565;-72
2023/09/11 16:32:23;;;;;;;13.40;10.10;;;29.50;76.80;;;;;;7578182;19;20478;-74
2023/09/11 16:34:55;;;;;;;11.68;10.48;;;29.40;77.60;;;;;;7591216;19;20010;-73
2023/09/11 16:37:28;;;;;;;17.27;10.80;;;29.30;77.90;;;;;;7588678;19;20011;-72
2023/09/11 16:40:00;;;;;;;12.23;10.43;;;29.20;77.90;;;;;;7593511;19;20935;-73
2023/09/11 16:42:32;;;;;;;12.10;10.48;;;29.10;78.50;;;;;;7601057;19;20026;-73
2023/09/11 16:45:05;;;;;;;18.95;10.18;;;29.00;78.80;;;;;;7602333;19;20116;-71
2023/09/11 16:47:38;;;;;;;11.80;10.60;;;28.90;79.60;;;;;;7578805;19;21301;-72
2023/09/11 16:50:12;;;;;;;12.00;10.35;;;28.70;80.50;;;;;;7571474;19;20007;-72
2023/09/11 16:52:46;;;;;;;12.15;10.25;;;28.60;80.20;;;;;;7591327;19;20014;-72
2023/09/11 16:55:18;;;;;;;11.65;10.38;;;28.50;81.20;;;;;;7595298;19;21133;-73
2023/09/11 16:57:51;;;;;;;14.65;10.52;;;28.30;81.40;;;;;;7602159;19;20018;-73
2023/09/11 17:00:25;;;;;;;11.27;10.20;;;28.20;81.30;;;;;;7599602;19;20022;-72
2023/09/11 17:02:57;;;;;;;17.25;10.80;;;28.00;83.70;;;;;;7608194;19;21032;-73
2023/09/11 17:05:30;;;;;;;12.75;10.25;;;27.80;83.00;;;;;;7599800;19;20029;-73
2023/09/11 17:08:02;;;;;;;17.00;11.25;;;27.60;86.10;;;;;;7594089;19;20014;-73
2023/09/11 17:10:34;;;;;;;12.80;10.73;;;27.40;86.80;;;;;;7600506;19;20049;-73
2023/09/11 17:13:07;;;;;;;13.43;11.40;;;27.20;89.20;;;;;;7601261;19;20358;-71
2023/09/11 17:15:39;;;;;;;19.83;10.93;;;27.00;90.40;;;;;;7597242;19;20014;-72
2023/09/11 17:18:11;;;;;;;14.88;12.13;;;26.90;90.90;;;;;;7584169;19;20018;-73
2023/09/11 17:20:44;;;;;;;13.63;11.20;;;26.80;91.30;;;;;;7567652;19;20139;-73
2023/09/11 17:23:16;;;;;;;14.97;11.43;;;26.60;91.60;;;;;;7577255;19;20017;-73
2023/09/11 17:25:48;;;;;;;18.60;11.80;;;26.50;92.00;;;;;;7589713;19;20323;-73
2023/09/11 17:28:21;;;;;;;14.68;10.80;;;26.40;92.70;;;;;;7596398;19;20023;-72
2023/09/11 17:30:53;;;;;;;18.38;10.80;;;26.20;92.70;;;;;;7587895;19;20021;-73
2023/09/11 17:33:26;;;;;;;14.90;12.18;;;26.10;93.00;;;;;;7586520;19;20056;-73
2023/09/11 17:35:59;;;;;;;14.48;10.93;;;25.90;93.50;;;;;;7590189;19;20029;-73
2023/09/11 17:38:31;;;;;;;13.38;11.35;;;25.80;93.50;;;;;;7591771;19;20019;-73
2023/09/11 17:41:04;;;;;;;13.82;11.68;;;25.70;93.80;;;;;;7607393;19;20033;-73
2023/09/11 17:43:36;;;;;;;15.02;11.98;;;25.60;94.10;;;;;;7588407;19;20021;-74
2023/09/11 17:46:14;;;;;;;19.98;12.57;;;25.40;94.80;;;;;;7585637;19;20026;-72
2023/09/11 17:48:47;;;;;;;15.95;12.27;;;25.30;95.40;;;;;;7563110;19;20064;-73
2023/09/11 17:51:19;;;;;;;16.60;12.15;;;25.10;95.70;;;;;;7570250;19;21064;-73
2023/09/11 17:53:52;;;;;;;17.75;12.95;;;25.00;96.20;;;;;;7576774;19;20014;-73
2023/09/11 17:56:24;;;;;;;19.92;13.32;;;24.90;96.60;;;;;;7587212;19;20014;-73
2023/09/11 17:58:57;;;;;;;14.80;12.23;;;24.90;96.90;;;;;;7585832;19;20900;-72
2023/09/11 18:01:29;;;;;;;15.65;12.75;;;24.80;97.00;;;;;;7581154;19;20213;-73
2023/09/11 18:04:04;;;;;;;14.95;11.93;;;24.70;97.30;;;;;;7583900;19;20014;-73
2023/09/11 18:06:37;;;;;;;14.80;13.20;;;24.70;97.50;;;;;;7586472;19;20010;-72
2023/09/11 18:09:10;;;;;;;16.25;12.82;;;24.60;97.90;;;;;;7585381;19;20023;-73
2023/09/11 18:11:43;;;;;;;15.70;12.90;;;24.50;98.40;;;;;;7579842;19;20011;-72
2023/09/11 18:14:15;;;;;;;16.38;13.05;;;24.40;98.80;;;;;;7598473;19;20019;-73
2023/09/11 18:16:47;;;;;;;15.43;13.13;;;24.30;99.40;;;;;;7585720;19;20014;-74
2023/09/11 18:19:19;;;;;;;20.33;13.55;;;24.00;99.90;;;;;;7593458;19;20027;-73
2023/09/11 18:21:52;;;;;;;18.13;13.20;;;23.90;99.90;;;;;;7599257;19;20014;-72
2023/09/11 18:24:24;;;;;;;14.27;12.60;;;23.80;99.90;;;;;;7584965;19;20018;-72
2023/09/11 18:26:57;;;;;;;15.77;13.57;;;23.70;99.90;;;;;;7575406;19;20681;-72
2023/09/11 18:29:32;;;;;;;14.65;12.50;;;23.60;99.90;;;;;;7595672;19;20034;-71
2023/09/11 18:32:04;;;;;;;20.92;13.57;;;23.60;99.90;;;;;;7580998;19;20017;-72
2023/09/11 18:34:37;;;;;;;16.60;13.13;;;23.60;99.90;;;;;;7578263;19;20017;-72
2023/09/11 18:37:09;;;;;;;21.83;14.57;;;23.50;99.90;;;;;;7602922;19;20018;-73
2023/09/11 18:39:41;;;;;;;15.73;14.02;;;23.50;99.90;;;;;;7582720;19;20014;-72
2023/09/11 18:42:14;;;;;;;17.60;13.95;;;23.40;99.90;;;;;;7587960;19;20987;-73
2023/09/11 18:44:46;;;;;;;22.50;14.25;;;23.40;99.90;;;;;;7597241;19;20010;-72
2023/09/11 18:47:19;;;;;;;16.67;14.70;;;23.30;99.90;;;;;;7585073;19;20683;-73
2023/09/11 18:49:51;;;;;;;24.73;13.93;;;23.20;99.90;;;;;;7091803;19;9999612;-73
2023/09/11 18:52:25;;;;;;;16.80;14.00;;;23.10;99.90;;;;;;7091423;19;10000022;-72
2023/09/11 18:54:58;;;;;;;15.02;13.45;;;23.10;99.90;;;;;;7601607;19;20913;-73
2023/09/11 18:57:30;;;;;;;20.20;13.43;;;23.00;99.90;;;;;;7601788;19;20059;-73
2023/09/11 19:00:04;;;;;;;19.40;13.93;;;22.90;99.90;;;;;;7604508;19;20100;-72
2023/09/11 19:02:36;;;;;;;18.10;14.13;;;22.90;99.90;;;;;;7586212;19;20093;-72
2023/09/11 19:05:09;;;;;;;18.00;14.30;;;22.80;99.90;;;;;;7592931;19;20031;-72
2023/09/11 19:07:42;;;;;;;;;;;22.70;99.90;;;;;;7597799;19;20015;-72
2023/09/11 19:10:14;;;;;;;19.83;14.65;;;22.60;99.90;;;;;;7605018;19;20553;-73
2023/09/11 19:12:47;;;;;;;18.35;15.75;;;22.60;99.90;;;;;;7589272;19;20019;-72
2023/09/11 19:15:19;;;;;;;20.98;14.40;;;22.50;99.90;;;;;;7596338;19;20659;-72
2023/09/11 19:17:52;;;;;;;17.30;14.25;;;22.50;99.90;;;;;;7603076;19;20010;-72
2023/09/11 19:20:26;;;;;;;20.35;16.20;;;22.50;99.90;;;;;;7607151;19;20046;-71
2023/09/11 19:22:59;;;;;;;19.33;14.77;;;22.30;99.90;;;;;;7607542;19;20026;-73
2023/09/11 19:25:32;;;;;;;19.77;15.77;;;22.30;99.90;;;;;;7599921;19;20046;-73
2023/09/11 19:28:05;;;;;;;19.90;15.05;;;22.30;99.90;;;;;;7610598;19;20026;-73
2023/09/11 19:30:37;;;;;;;17.55;15.07;;;22.30;99.90;;;;;;7603950;19;20212;-72
2023/09/11 19:33:09;;;;;;;24.33;15.40;;;22.30;99.90;;;;;;7600037;19;20019;-71
2023/09/11 19:35:43;;;;;;;20.40;14.27;;;22.20;99.90;;;;;;7607939;19;20010;-71
2023/09/11 19:38:15;;;;;;;18.42;14.75;;;22.20;99.90;;;;;;7609820;19;20022;-71
2023/09/11 19:40:47;;;;;;;18.58;15.30;;;22.10;99.90;;;;;;7602729;19;20017;-71
2023/09/11 19:43:22;;;;;;;18.13;14.52;;;22.00;99.90;;;;;;7599034;19;20033;-71
2023/09/11 19:45:54;;;;;;;17.35;14.40;;;22.00;99.90;;;;;;7613542;19;20019;-71
2023/09/11 19:48:27;;;;;;;25.13;14.90;;;21.90;99.90;;;;;;7607220;19;20015;-70
2023/09/11 19:51:00;;;;;;;17.83;14.38;;;21.80;99.90;;;;;;7618429;19;20023;-70
2023/09/11 19:53:32;;;;;;;17.75;15.13;;;21.70;99.90;;;;;;7608450;19;20003;-71
2023/09/11 19:56:05;;;;;;;17.23;14.82;;;21.70;99.90;;;;;;7602310;19;20010;-72
2023/09/11 19:58:38;;;;;;;18.58;15.13;;;21.60;99.90;;;;;;7620394;19;20022;-72
2023/09/11 20:01:11;;;;;;;17.70;14.70;;;21.60;99.90;;;;;;7626364;19;20015;-71
2023/09/11 20:03:43;;;;;;;18.85;15.25;;;21.60;99.90;;;;;;7622862;19;20014;-72
2023/09/11 20:06:16;;;;;;;22.27;16.85;;;21.50;99.90;;;;;;7627573;19;20596;-71
2023/09/11 20:08:49;;;;;;;19.92;16.58;;;21.50;99.90;;;;;;7623587;19;20021;-72
2023/09/11 20:11:22;;;;;;;18.20;16.20;;;21.40;99.90;;;;;;7618577;19;20023;-71
2023/09/11 20:13:54;;;;;;;23.63;15.80;;;21.30;99.90;;;;;;7620048;19;20014;-72
2023/09/11 20:16:28;;;;;;;21.57;15.87;;;21.30;99.90;;;;;;7611927;19;20007;-72
2023/09/11 20:19:00;;;;;;;17.98;16.08;;;21.30;99.90;;;;;;7609581;19;20014;-71
2023/09/11 20:21:32;;;;;;;26.77;16.27;;;21.20;99.90;;;;;;7619606;19;20370;-72
2023/09/11 20:24:05;;;;;;;22.05;17.38;;;21.20;99.90;;;;;;7601202;19;20060;-71
2023/09/11 20:26:37;;;;;;;22.02;17.33;;;21.20;99.90;;;;;;7606410;19;20011;-73
2023/09/11 20:29:09;;;;;;;27.93;16.73;;;21.20;99.90;;;;;;7614850;19;20018;-71
2023/09/11 20:31:42;;;;;;;24.67;17.02;;;21.20;99.90;;;;;;7612861;19;20030;-71
2023/09/11 20:34:15;;;;;;;18.23;16.03;;;21.20;99.90;;;;;;7599531;19;20022;-71
2023/09/11 20:36:47;;;;;;;24.63;17.40;;;21.20;99.90;;;;;;7611167;19;20020;-71
2023/09/11 20:39:23;;;;;;;19.70;16.33;;;21.10;99.90;;;;;;7607071;19;20014;-71
2023/09/11 20:41:56;;;;;;;23.70;17.02;;;21.00;99.90;;;;;;7598518;19;20039;-71
2023/09/11 20:44:28;;;;;;;21.58;16.85;;;21.00;99.90;;;;;;7607892;19;20026;-72
2023/09/11 20:47:00;;;;;;;23.33;18.05;;;20.90;99.90;;;;;;7609423;19;20022;-71
2023/09/11 20:49:33;;;;;;;21.50;17.77;;;20.90;99.90;;;;;;7573742;19;20016;-71
2023/09/11 20:52:05;;;;;;;20.35;18.00;;;20.90;99.90;;;;;;7593472;19;20019;-71
2023/09/11 20:54:38;;;;;;;20.98;18.60;;;20.80;99.90;;;;;;7584971;19;20007;-72
2023/09/11 20:57:11;;;;;;;25.58;18.95;;;20.70;99.90;;;;;;7584031;19;20678;-71
2023/09/11 20:59:43;;;;;;;28.33;21.10;;;20.70;99.90;;;;;;7569999;19;20021;-72
2023/09/11 21:02:15;;;;;;;27.17;20.77;;;20.70;99.90;;;;;;7593801;19;20021;-71
2023/09/11 21:04:49;;;;;;;29.38;19.60;;;20.70;99.90;;;;;;7582383;19;20479;-72
2023/09/11 21:07:22;;;;;;;24.10;20.25;;;20.60;99.90;;;;;;7589399;19;20018;-72
2023/09/11 21:09:54;;;;;;;26.95;20.38;;;20.50;99.90;;;;;;7595531;19;20930;-72
2023/09/11 21:12:27;;;;;;;29.15;21.60;;;20.50;99.90;;;;;;7556371;19;20018;-71
2023/09/11 21:15:00;;;;;;;30.80;22.08;;;20.50;99.90;;;;;;7602349;19;20066;-71
2023/09/11 21:17:32;;;;;;;27.98;21.33;;;20.50;99.90;;;;;;7601494;19;20014;-72
2023/09/11 21:20:05;;;;;;;31.35;22.08;;;20.50;99.90;;;;;;7602853;19;20015;-72
2023/09/11 21:22:37;;;;;;;28.65;23.00;;;20.40;99.90;;;;;;7595036;19;21222;-70
2023/09/11 21:25:13;;;;;;;33.75;22.55;;;20.30;99.90;;;;;;7604025;19;20022;-71
2023/09/11 21:27:46;;;;;;;34.80;22.55;;;20.30;99.90;;;;;;7598774;19;20531;-71
2023/09/11 21:30:18;;;;;;;29.48;21.63;;;20.30;99.90;;;;;;7598267;19;20674;-70
2023/09/11 21:32:51;;;;;;;27.70;22.60;;;20.30;99.90;;;;;;7597316;19;20018;-71
2023/09/11 21:35:24;;;;;;;29.63;20.98;;;20.30;99.90;;;;;;7603031;19;20039;-70
2023/09/11 21:37:57;;;;;;;28.65;22.08;;;20.20;99.90;;;;;;7597700;19;20023;-71
2023/09/11 21:40:29;;;;;;;29.70;21.02;;;20.20;99.90;;;;;;7588958;19;20015;-71
2023/09/11 21:43:02;;;;;;;26.73;20.85;;;20.10;99.90;;;;;;7587998;19;20037;-71
2023/09/11 21:45:39;;;;;;;26.60;21.00;;;20.10;99.90;;;;;;7596553;19;20019;-69
2023/09/11 21:48:11;;;;;;;28.00;20.75;;;20.10;99.90;;;;;;7600366;19;20014;-70
2023/09/11 21:50:44;;;;;;;23.65;20.90;;;20.10;99.90;;;;;;7592787;19;20022;-70
2023/09/11 21:53:16;;;;;;;26.90;20.47;;;19.90;99.90;;;;;;7093303;19;9999972;-73
2023/09/11 21:55:48;;;;;;;24.73;20.52;;;19.90;99.90;;;;;;7596264;19;20809;-70
2023/09/11 21:58:20;;;;;;;22.30;19.20;;;19.90;99.90;;;;;;7601571;19;20056;-71
2023/09/11 22:00:53;;;;;;;26.25;20.40;;;19.80;99.90;;;;;;7595802;19;20025;-71
2023/09/11 22:03:25;;;;;;;25.67;20.05;;;19.80;99.90;;;;;;7590284;19;20086;-72
2023/09/11 22:05:58;;;;;;;24.55;19.00;;;19.70;99.90;;;;;;7583867;19;20014;-70
2023/09/11 22:08:30;;;;;;;21.45;18.60;;;19.70;99.90;;;;;;7583823;19;20023;-70
2023/09/11 22:11:02;;;;;;;24.63;18.27;;;19.90;99.90;;;;;;7584139;19;21337;-70
2023/09/11 22:13:34;;;;;;;24.40;19.10;;;20.00;99.90;;;;;;7599196;19;20106;-69
2023/09/11 22:16:07;;;;;;;22.67;17.80;;;20.10;99.90;;;;;;7607199;19;20018;-71
2023/09/11 22:18:39;;;;;;;28.70;19.17;;;20.10;99.90;;;;;;7598261;19;20381;-70
2023/09/11 22:21:11;;;;;;;21.92;18.17;;;20.20;99.90;;;;;;7606147;19;20018;-71
2023/09/11 22:23:43;;;;;;;25.73;18.00;;;20.10;99.90;;;;;;7597388;19;20476;-71
2023/09/11 22:26:16;;;;;;;20.45;17.48;;;20.00;99.90;;;;;;7600250;19;20010;-72
2023/09/11 22:28:48;;;;;;;21.27;17.83;;;19.90;99.90;;;;;;7590073;19;20052;-71
2023/09/11 22:31:21;;;;;;;25.30;18.40;;;19.80;99.90;;;;;;7603104;19;20018;-71
2023/09/11 22:33:53;;;;;;;22.73;18.50;;;19.70;99.90;;;;;;7572048;19;20007;-70
2023/09/11 22:36:25;;;;;;;19.80;16.77;;;19.60;99.90;;;;;;7584847;19;20026;-70
2023/09/11 22:38:57;;;;;;;21.38;18.25;;;19.50;99.90;;;;;;7575559;19;20019;-71
2023/09/11 22:41:30;;;;;;;20.55;17.50;;;19.50;99.90;;;;;;7582662;19;20025;-69
2023/09/11 22:44:02;;;;;;;20.05;16.92;;;19.40;99.90;;;;;;7585396;19;20015;-73
2023/09/11 22:46:34;;;;;;;19.90;16.58;;;19.40;99.90;;;;;;7601884;19;20626;-70
2023/09/11 22:49:06;;;;;;;19.90;16.30;;;19.40;99.90;;;;;;7584671;19;20879;-71
2023/09/11 22:51:39;;;;;;;21.63;17.63;;;19.40;99.90;;;;;;7585962;19;20014;-70
2023/09/11 22:54:11;;;;;;;20.92;16.27;;;19.40;99.90;;;;;;7600669;19;20018;-70
2023/09/11 22:56:43;;;;;;;23.05;16.92;;;19.40;99.90;;;;;;7598362;19;20071;-71
2023/09/11 22:59:16;;;;;;;23.17;16.85;;;19.30;99.90;;;;;;7587665;19;20018;-72
2023/09/11 23:01:48;;;;;;;21.15;16.10;;;19.30;99.90;;;;;;7587659;19;20987;-70
2023/09/11 23:04:20;;;;;;;23.42;17.70;;;19.30;99.90;;;;;;7567653;19;20998;-70
2023/09/11 23:06:53;;;;;;;22.55;18.00;;;19.20;99.90;;;;;;7576858;19;20030;-71
2023/09/11 23:09:25;;;;;;;20.38;17.02;;;19.20;99.90;;;;;;7581552;19;20369;-70
2023/09/11 23:11:57;;;;;;;21.02;17.08;;;19.20;99.90;;;;;;7558523;19;20015;-70
2023/09/11 23:14:30;;;;;;;24.17;16.38;;;19.30;99.90;;;;;;7581155;19;20019;-71
2023/09/11 23:17:02;;;;;;;21.23;16.30;;;19.40;99.90;;;;;;7558613;19;20044;-71
2023/09/11 23:19:34;;;;;;;27.52;18.02;;;19.30;99.90;;;;;;7562901;19;20022;-71
2023/09/11 23:22:06;;;;;;;21.30;16.80;;;19.30;99.90;;;;;;7577114;19;20739;-71
2023/09/11 23:24:39;;;;;;;21.35;16.90;;;19.40;99.90;;;;;;7602686;19;21114;-71
2023/09/11 23:27:12;;;;;;;26.40;17.52;;;19.30;99.90;;;;;;7599516;19;20026;-70
2023/09/11 23:29:44;;;;;;;22.42;16.77;;;19.40;99.90;;;;;;7590744;19;20040;-70
2023/09/11 23:32:16;;;;;;;20.02;16.92;;;19.40;99.90;;;;;;7582817;19;20036;-70
2023/09/11 23:34:48;;;;;;;23.90;17.80;;;19.30;99.90;;;;;;7581011;19;20322;-72
2023/09/11 23:37:20;;;;;;;20.48;16.67;;;19.30;99.90;;;;;;7585326;19;20826;-72
2023/09/11 23:39:52;;;;;;;20.30;16.88;;;19.30;99.90;;;;;;7595071;19;20044;-70
2023/09/11 23:42:25;;;;;;;23.00;16.13;;;19.10;99.90;;;;;;7594168;19;20036;-71
2023/09/11 23:44:57;;;;;;;20.90;16.05;;;18.90;99.90;;;;;;7594733;19;20011;-70
2023/09/11 23:47:30;;;;;;;22.60;16.67;;;18.90;99.90;;;;;;7583295;19;20014;-71
2023/09/11 23:50:03;;;;;;;19.80;16.73;;;18.80;99.90;;;;;;7585780;19;20018;-72
2023/09/11 23:52:35;;;;;;;18.10;16.05;;;18.70;99.90;;;;;;7585086;19;20323;-70
2023/09/11 23:55:09;;;;;;;20.63;16.80;;;18.80;99.90;;;;;;7569455;19;20019;-70
2023/09/11 23:57:41;;;;;;;;;;;18.80;99.90;;;;;;7576307;19;20018;-70
